AirNav   Duncan Aviation - Near you to keep you flying
 
 509 users online  

75LA Station 44 Heliport
Johnson Bayou, Louisiana, USA

GOING TO JOHNSON BAYOU?


FAA INFORMATION EFFECTIVE 08 SEPTEMBER 2022

Location

FAA Identifier: 75LA
Lat/Long: 29-48-48.7880N 093-40-24.5750W
29-48.813133N 093-40.409583W
29.8135522,-93.6734931
(estimated)
Elevation: 5 ft. / 2 m (estimated)
Variation: 05E (1985)
From city: 2 miles NE of JOHNSON BAYOU, LA
Time zone: UTC -5 (UTC -6 during Standard Time)
Zip code: 70631

Heliport Operations

Heliport use: Private use. Permission required prior to landing
Activation date: 12/1983
Control tower: no
ARTCC: HOUSTON CENTER
FSS: DE RIDDER FLIGHT SERVICE STATION
Attendance: UNATNDD
Wind indicator: yes
Segmented circle: no

Heliport Communications

WX AWOS-3 at ORG (17 nm NW): 118.975 (409-670-9591)
WX ASOS at BPT (20 nm NW): 126.3 (409-722-9396)

Nearby radio navigation aids

VOR radial/distance  VOR name  Freq  Var
BPTr107/19.5BEAUMONT VOR/DME114.5007E
SBIr061/20.5SABINE PASS VOR/DME115.4007E
LCHr229/35.5LAKE CHARLES VORTAC113.4007E

 
NDB name  Hdg/Dist  Freq  Var  ID
SULPHUR206/26.627804EAUR .- ..- .-.
GOODHUE112/31.936807EGDE --. -.. .

Heliport Services

Fuel available: A

Runway Information

Helipad H1

Dimensions: 30 x 25 ft. / 9 x 8 m
Surface: concrete
Latitude: 29-48.813167N
Longitude: 093-40.409667W
Elevation: 5.0 ft.
Traffic pattern: leftleft

Heliport Ownership and Management from official FAA records

Ownership: Privately-owned
Owner: TRANSCO ENERGY COMPANY
P.O. BOX 1396
HOUSTON, TX 77251
Phone 337-569-7670
Manager: JOHN BELL
5564 GULF BEACH HWY
CAMERON, LA 70631
Phone (337) 569-7670
ADD'L CONTACT JOHN HANTZ 337-569-7650

Heliport Operational Statistics

Aircraft based on the field: 1
Helicopters: 1
    

Additional Remarks

A52-H1 280' TOWER 500' EAST.
FOR CD CTC HOUSTON APCH AT 281-443-5844.

Instrument Procedures

There are no published instrument procedures at 75LA.

Some nearby airports with instrument procedures:

KORG - Orange County Airport (17 nm NW)
KBPT - Jack Brooks Regional Airport (20 nm NW)
KUXL - Southland Field Airport (25 nm NE)
KLCH - Lake Charles Regional Airport (30 nm NE)
KBMT - Beaumont Municipal Airport (32 nm NW)
 
Loc | Ops | Rwys | IFR | FBO | Links
Com | Nav | Svcs | Stats | Notes
Area around 75LA (Station 44 Heliport)
 
Road maps at: MapQuest Bing Google
 
Aerial photo
No photo
 
Sectional chart

 
Airport distance calculator
Flying to Station 44 Heliport? Find the distance to fly.

From to 75LA

Sunrise and sunset
Times for 02-Oct-2022
 Local
(UTC-5)
 Zulu
(UTC)
Morning civil twilight06:4611:46
Sunrise07:1012:10
Sunset18:5923:59
Evening civil twilight19:2200:22

Current date and time
Zulu (UTC)  02-Oct-2022 11:16:11
Local (UTC-5)  02-Oct-2022 06:16:11
 
METAR
KORG 
17nm NW 
021055Z AUTO 00000KT 10SM CLR 12/11 A3010 RMK AO2 T01210106
KBPT 
20nm NW 
021053Z 00000KT 10SM CLR 13/10 A3007 RMK AO2 SLP183 T01280100 $
KUXL 
25nm NE 
021055Z AUTO 36003KT 10SM CLR 12/08 A3009 RMK AO2 T01180079
KLCH 
31nm NE 
021053Z AUTO 02004KT 10SM CLR 14/08 A3007 RMK AO2 SLP191 T01390083
KBMT 
32nm NW 
021055Z AUTO 07004KT 10SM CLR 13/08 A3008 RMK AO2 T01310081
TAF
KBPT 
20nm NW 
020520Z 0206/0306 VRB03KT P6SM SKC FM021500 02008KT P6SM SKC FM030100 VRB03KT P6SM SKC
NOTAMs
Click for the latest NOTAMs
NOTAMs are issued by the DoD/FAA and will open in a separate window not controlled by AirNav.

 

 
 

Would you like to see your business listed on this page?

 If your business provides an interesting product or service to pilots, flight crews, aircraft, or users of the Station 44 Heliport, you should consider listing it here.  To start the listing process, click on the button below
 
Add a business
 

Other Pages about Station 44 Heliport

Update a link
 
Copyright © AirNav, LLC. All rights reserved. Privacy Policy  Contact